createdAt,value
2017-09-13T00:02:03.659Z,93.50
2017-09-13T00:04:31.151Z,93.60
2017-09-13T00:06:59.392Z,93.60
2017-09-13T00:09:26.892Z,93.50
2017-09-13T00:11:54.383Z,93.30
2017-09-13T00:14:21.880Z,93.40
2017-09-13T00:16:49.361Z,93.30
2017-09-13T00:19:16.864Z,93.30
2017-09-13T00:21:44.341Z,93.40
2017-09-13T00:24:11.840Z,93.40
2017-09-13T00:26:39.316Z,93.50
2017-09-13T00:29:06.816Z,93.40
2017-09-13T00:31:34.293Z,93.40
2017-09-13T00:34:01.788Z,93.30
2017-09-13T00:36:29.271Z,93.20
2017-09-13T00:38:56.768Z,93.20
2017-09-13T00:41:25.008Z,93.10
2017-09-13T00:43:52.503Z,93.00
2017-09-13T00:46:19.983Z,93.10
2017-09-13T00:48:47.460Z,93.20
2017-09-13T00:51:14.959Z,93.20
2017-09-13T00:53:42.465Z,93.20
2017-09-13T00:56:09.960Z,93.00
2017-09-13T00:58:37.444Z,93.00
2017-09-13T01:01:04.939Z,92.90
2017-09-13T01:03:32.421Z,93.00
2017-09-13T01:05:59.924Z,92.90
2017-09-13T01:08:27.403Z,92.90
2017-09-13T01:10:54.900Z,92.80
2017-09-13T01:13:22.379Z,93.00
2017-09-13T01:15:49.877Z,93.00
2017-09-13T01:18:17.358Z,93.10
2017-09-13T01:20:47.539Z,93.50
2017-09-13T01:23:15.008Z,93.20
2017-09-13T01:25:43.274Z,93.40
2017-09-13T01:28:10.764Z,93.40
2017-09-13T01:30:38.289Z,93.60
2017-09-13T01:33:05.776Z,93.70
2017-09-13T01:35:33.274Z,93.90
2017-09-13T01:38:00.817Z,93.80
2017-09-13T01:40:28.312Z,93.80
2017-09-13T01:42:56.560Z,94.00
2017-09-13T01:45:24.836Z,94.40
2017-09-13T01:47:58.800Z,94.30
2017-09-13T01:50:26.299Z,94.30
2017-09-13T01:52:53.779Z,94.30
2017-09-13T01:55:21.264Z,94.30
2017-09-13T01:57:49.527Z,94.30
2017-09-13T02:00:17.768Z,94.30
2017-09-13T02:02:45.264Z,94.30
2017-09-13T02:05:12.743Z,94.30
2017-09-13T02:07:40.238Z,94.30
2017-09-13T02:10:07.719Z,94.30
2017-09-13T02:12:35.215Z,94.20
2017-09-13T02:15:02.687Z,94.00
2017-09-13T02:17:36.169Z,94.10
2017-09-13T02:20:03.667Z,93.90
2017-09-13T02:22:31.177Z,93.70
2017-09-13T02:24:58.709Z,93.70
2017-09-13T02:27:26.216Z,93.50
2017-09-13T02:29:53.700Z,93.40
2017-09-13T02:32:21.205Z,93.30
2017-09-13T02:34:48.690Z,93.30
2017-09-13T02:37:16.196Z,93.00
2017-09-13T02:39:43.681Z,93.00
2017-09-13T02:42:11.191Z,92.90
2017-09-13T02:44:38.665Z,92.60
2017-09-13T02:47:06.169Z,92.60
2017-09-13T02:49:33.656Z,92.60
2017-09-13T02:52:01.935Z,92.50
2017-09-13T02:54:29.426Z,92.40
2017-09-13T02:56:56.914Z,92.40
2017-09-13T02:59:25.187Z,92.20
2017-09-13T03:01:52.668Z,92.20
2017-09-13T03:04:20.175Z,92.30
2017-09-13T03:06:47.669Z,92.30
2017-09-13T03:09:15.174Z,92.20
2017-09-13T03:11:42.662Z,92.10
2017-09-13T03:14:10.176Z,91.80
2017-09-13T03:16:37.658Z,92.10
2017-09-13T03:19:05.928Z,91.60
2017-09-13T03:21:33.405Z,91.60
2017-09-13T03:24:00.909Z,91.60
2017-09-13T03:26:29.162Z,91.70
2017-09-13T03:28:57.438Z,91.50
2017-09-13T03:31:24.925Z,91.40
2017-09-13T03:33:52.428Z,91.90
2017-09-13T03:36:19.904Z,91.40
2017-09-13T03:38:47.405Z,91.50
2017-09-13T03:41:15.649Z,91.50
2017-09-13T03:43:43.140Z,91.50
2017-09-13T03:46:10.619Z,91.30
2017-09-13T03:48:38.121Z,91.70
2017-09-13T03:51:05.604Z,91.70
2017-09-13T03:53:33.103Z,91.50
2017-09-13T03:56:00.579Z,91.40
2017-09-13T03:58:28.085Z,91.30
2017-09-13T04:00:55.567Z,91.30
2017-09-13T04:03:23.040Z,91.30
2017-09-13T04:05:51.303Z,91.00
2017-09-13T04:08:19.556Z,91.10
2017-09-13T04:10:47.847Z,91.00
2017-09-13T04:13:15.324Z,91.30
2017-09-13T04:15:42.815Z,91.00
2017-09-13T04:18:11.062Z,91.20
2017-09-13T04:20:38.564Z,91.10
2017-09-13T04:23:06.047Z,91.20
2017-09-13T04:25:34.316Z,91.20
2017-09-13T04:28:02.559Z,91.20
2017-09-13T04:30:30.056Z,91.20
2017-09-13T04:32:57.532Z,91.30
2017-09-13T04:35:25.032Z,91.00
2017-09-13T04:37:52.516Z,91.30
2017-09-13T04:40:20.007Z,91.90
2017-09-13T04:42:47.492Z,92.00
2017-09-13T04:45:14.988Z,92.20
2017-09-13T04:47:42.468Z,93.10
2017-09-13T04:50:09.965Z,92.60
2017-09-13T04:52:37.436Z,92.30
2017-09-13T04:55:04.944Z,92.60
2017-09-13T04:57:33.187Z,93.90
2017-09-13T05:00:01.468Z,94.00
2017-09-13T05:02:28.979Z,94.20
2017-09-13T05:04:56.468Z,94.80
2017-09-13T05:07:24.728Z,94.80
2017-09-13T05:09:52.207Z,94.80
2017-09-13T05:12:19.712Z,95.20
2017-09-13T05:14:47.185Z,95.50
2017-09-13T05:17:14.676Z,95.70
2017-09-13T05:19:42.925Z,96.10
2017-09-13T05:22:11.196Z,96.30
2017-09-13T05:24:39.441Z,97.20
2017-09-13T05:27:07.708Z,96.90
2017-09-13T05:29:35.948Z,96.70
2017-09-13T05:32:03.443Z,96.60
2017-09-13T05:34:30.922Z,96.50
2017-09-13T05:36:58.429Z,96.50
2017-09-13T05:39:26.755Z,96.30
2017-09-13T05:41:55.020Z,95.80
2017-09-13T05:44:23.271Z,95.80
2017-09-13T05:46:51.540Z,95.50
2017-09-13T05:49:19.019Z,95.40
2017-09-13T05:51:46.516Z,95.70
2017-09-13T05:54:14.767Z,95.20
2017-09-13T05:56:42.276Z,95.10
2017-09-13T05:59:09.753Z,95.00
2017-09-13T06:01:38.021Z,95.20
2017-09-13T06:04:06.264Z,94.90
2017-09-13T06:06:33.748Z,94.90
2017-09-13T06:09:01.248Z,95.00
2017-09-13T06:11:28.723Z,94.90
2017-09-13T06:13:56.219Z,95.20
2017-09-13T06:16:23.697Z,95.10
2017-09-13T06:18:51.969Z,94.90
2017-09-13T06:21:19.447Z,94.80
2017-09-13T06:23:46.952Z,94.90
2017-09-13T06:26:14.430Z,95.20
2017-09-13T06:28:41.942Z,95.70
2017-09-13T06:31:09.432Z,96.00
2017-09-13T06:33:36.928Z,96.50
2017-09-13T06:36:04.406Z,97.00
2017-09-13T06:38:31.908Z,97.10
2017-09-13T06:40:59.389Z,97.50
2017-09-13T06:43:26.883Z,97.90
2017-09-13T06:45:55.128Z,98.10
2017-09-13T06:48:22.624Z,98.10
2017-09-13T06:50:50.130Z,98.40
2017-09-13T06:53:18.401Z,98.80
2017-09-13T06:55:45.879Z,98.70
2017-09-13T06:58:13.381Z,99.00
2017-09-13T07:00:40.857Z,98.70
2017-09-13T07:03:08.359Z,98.60
2017-09-13T07:05:36.603Z,98.20
2017-09-13T07:08:04.079Z,98.20
2017-09-13T07:10:31.576Z,98.40
2017-09-13T07:12:59.047Z,98.30
2017-09-13T07:15:26.547Z,98.50
2017-09-13T07:17:54.023Z,98.00
2017-09-13T07:20:22.287Z,98.00
2017-09-13T07:22:50.531Z,97.90
2017-09-13T07:25:18.040Z,98.20
2017-09-13T07:27:45.516Z,97.90
2017-09-13T07:30:13.017Z,98.00
2017-09-13T07:32:40.504Z,98.20
2017-09-13T07:35:08.002Z,98.60
2017-09-13T07:37:35.480Z,98.80
2017-09-13T07:40:02.976Z,99.30
2017-09-13T07:42:30.452Z,99.10
2017-09-13T07:44:57.953Z,99.30
2017-09-13T07:47:25.432Z,99.30
2017-09-13T07:49:52.937Z,99.30
2017-09-13T07:52:21.184Z,99.10
2017-09-13T07:54:48.679Z,99.10
2017-09-13T07:57:16.156Z,98.90
2017-09-13T07:59:44.420Z,99.60
2017-09-13T08:02:12.678Z,99.80
2017-09-13T08:04:40.939Z,99.90
2017-09-13T08:07:09.183Z,99.60
2017-09-13T08:09:36.699Z,99.60
2017-09-13T08:12:04.181Z,99.70
2017-09-13T08:14:32.429Z,99.90
2017-09-13T08:16:59.925Z,99.90
2017-09-13T08:19:27.400Z,99.90
2017-09-13T08:21:54.908Z,99.90
2017-09-13T08:24:22.384Z,99.90
2017-09-13T08:26:49.891Z,99.90
2017-09-13T08:29:17.373Z,99.90
2017-09-13T08:31:44.868Z,99.90
2017-09-13T08:34:12.344Z,99.90
2017-09-13T08:36:39.844Z,99.90
2017-09-13T08:39:07.337Z,99.90
2017-09-13T08:41:35.626Z,99.90
2017-09-13T08:44:03.869Z,99.90
2017-09-13T08:46:31.367Z,99.90
2017-09-13T08:48:58.848Z,99.90
2017-09-13T08:51:26.458Z,99.90
2017-09-13T08:53:53.931Z,99.90
2017-09-13T08:56:21.432Z,99.90
2017-09-13T08:58:48.928Z,99.90
2017-09-13T09:01:16.426Z,99.90
2017-09-13T09:03:43.954Z,99.90
2017-09-13T09:06:11.449Z,99.90
2017-09-13T09:08:39.002Z,99.90
2017-09-13T09:11:07.298Z,99.90
2017-09-13T09:13:34.771Z,99.90
2017-09-13T09:16:02.253Z,99.90
2017-09-13T09:18:30.511Z,99.90
2017-09-13T09:20:58.751Z,99.90
2017-09-13T09:23:26.240Z,99.90
2017-09-13T09:25:54.764Z,99.90
2017-09-13T09:28:22.260Z,99.90
2017-09-13T09:30:49.737Z,99.90
2017-09-13T09:33:17.248Z,99.90
2017-09-13T09:35:44.727Z,99.90
2017-09-13T09:38:12.228Z,99.90
2017-09-13T09:40:39.720Z,99.90
2017-09-13T09:43:07.216Z,99.90
2017-09-13T09:45:34.695Z,99.90
2017-09-13T09:48:02.193Z,99.90
2017-09-13T09:50:29.668Z,99.90
2017-09-13T09:52:57.169Z,99.90
2017-09-13T09:55:24.659Z,99.90
2017-09-13T09:57:52.156Z,99.90
2017-09-13T10:00:19.631Z,99.90
2017-09-13T10:02:47.124Z,99.90
2017-09-13T10:05:15.363Z,99.90
2017-09-13T10:07:42.877Z,99.90
2017-09-13T10:10:10.351Z,99.90
2017-09-13T10:12:37.836Z,99.90
2017-09-13T10:15:05.338Z,99.90
2017-09-13T10:17:33.581Z,99.90
2017-09-13T10:20:01.077Z,99.90
2017-09-13T10:22:28.555Z,99.90
2017-09-13T10:24:56.052Z,99.90
2017-09-13T10:27:23.528Z,99.90
2017-09-13T10:29:51.020Z,99.90
2017-09-13T10:32:19.322Z,99.90
2017-09-13T10:34:46.821Z,99.90
2017-09-13T10:37:15.143Z,99.90
2017-09-13T10:39:42.660Z,99.90
2017-09-13T10:42:10.139Z,99.90
2017-09-13T10:44:37.644Z,99.90
2017-09-13T10:47:05.132Z,99.90
2017-09-13T10:49:32.633Z,99.80
2017-09-13T10:52:00.109Z,99.60
2017-09-13T10:54:27.607Z,99.80
2017-09-13T10:56:55.087Z,99.40
2017-09-13T10:59:22.581Z,99.20
2017-09-13T11:01:50.081Z,99.40
2017-09-13T11:04:17.584Z,99.50
2017-09-13T11:06:45.075Z,99.30
2017-09-13T11:09:12.610Z,98.80
2017-09-13T11:11:40.093Z,98.90
2017-09-13T11:14:07.567Z,98.60
2017-09-13T11:16:35.074Z,98.70
2017-09-13T11:19:02.562Z,98.90
2017-09-13T11:21:30.052Z,98.40
2017-09-13T11:23:57.540Z,98.50
2017-09-13T11:26:25.043Z,98.50
2017-09-13T11:28:52.529Z,98.50
2017-09-13T11:31:20.028Z,98.60
2017-09-13T11:33:47.505Z,98.70
2017-09-13T11:36:15.767Z,98.80
2017-09-13T11:38:43.301Z,98.80
2017-09-13T11:41:10.912Z,99.30
2017-09-13T11:43:39.160Z,99.90
2017-09-13T11:46:07.428Z,99.90
2017-09-13T11:48:35.681Z,99.90
2017-09-13T11:51:03.940Z,99.90
2017-09-13T11:53:32.188Z,99.90
2017-09-13T11:55:59.691Z,99.90
2017-09-13T11:58:27.174Z,99.90
2017-09-13T12:00:54.677Z,99.90
2017-09-13T12:03:22.160Z,99.90
2017-09-13T12:05:49.657Z,99.90
2017-09-13T12:08:17.137Z,99.90
2017-09-13T12:10:44.640Z,99.90
2017-09-13T12:13:12.119Z,99.90
2017-09-13T12:15:39.595Z,99.90
2017-09-13T12:18:07.096Z,99.90
2017-09-13T12:20:34.573Z,99.90
2017-09-13T12:23:02.840Z,99.30
2017-09-13T12:25:30.319Z,99.20
2017-09-13T12:27:57.823Z,98.20
2017-09-13T12:30:25.300Z,97.90
2017-09-13T12:32:52.793Z,97.40
2017-09-13T12:35:21.036Z,97.10
2017-09-13T12:37:48.528Z,97.10
2017-09-13T12:40:16.004Z,97.10
2017-09-13T12:42:43.500Z,97.00
2017-09-13T12:45:10.977Z,96.40
2017-09-13T12:47:38.472Z,96.20
2017-09-13T12:50:06.717Z,95.80
2017-09-13T12:52:34.215Z,95.70
2017-09-13T12:55:01.700Z,95.90
2017-09-13T12:57:29.201Z,96.10
2017-09-13T12:59:56.684Z,95.80
2017-09-13T13:02:24.171Z,95.80
2017-09-13T13:04:51.676Z,95.50
2017-09-13T13:07:19.168Z,95.20
2017-09-13T13:09:46.658Z,95.30
2017-09-13T13:12:14.160Z,95.50
2017-09-13T13:14:41.636Z,95.50
2017-09-13T13:17:09.173Z,95.30
2017-09-13T13:19:36.662Z,95.60
2017-09-13T13:22:04.144Z,94.60
2017-09-13T13:24:31.654Z,94.20
2017-09-13T13:26:59.128Z,94.50
2017-09-13T13:29:26.636Z,93.70
2017-09-13T13:31:54.875Z,92.00
2017-09-13T13:34:23.140Z,88.50
2017-09-13T13:36:50.611Z,88.40
2017-09-13T13:39:18.108Z,88.60
2017-09-13T13:41:46.348Z,85.00
2017-09-13T13:44:13.841Z,84.80
2017-09-13T13:46:41.320Z,82.30
2017-09-13T13:49:08.814Z,75.60
2017-09-13T13:51:36.288Z,74.90
2017-09-13T13:54:03.796Z,73.40
2017-09-13T13:56:31.288Z,74.90
2017-09-13T13:58:58.789Z,74.10
2017-09-13T14:01:26.265Z,75.20
2017-09-13T14:03:53.760Z,74.80
2017-09-13T14:06:21.241Z,74.10
2017-09-13T14:08:48.744Z,74.80
2017-09-13T14:11:16.987Z,77.40
2017-09-13T14:13:45.247Z,78.90
2017-09-13T14:16:12.716Z,79.10
2017-09-13T14:18:40.196Z,79.30
2017-09-13T14:21:07.699Z,79.60
2017-09-13T14:23:35.178Z,80.40
2017-09-13T14:26:02.679Z,81.50
2017-09-13T14:28:30.161Z,82.70
2017-09-13T14:30:57.659Z,84.40
2017-09-13T14:33:25.892Z,87.50
2017-09-13T14:35:53.387Z,87.60
2017-09-13T14:38:20.872Z,91.20
2017-09-13T14:40:48.359Z,92.00
2017-09-13T14:43:15.869Z,92.70
2017-09-13T14:45:43.356Z,93.30
2017-09-13T14:48:11.598Z,94.60
2017-09-13T14:50:39.092Z,94.50
2017-09-13T14:53:06.641Z,95.10
2017-09-13T14:55:34.141Z,95.80
2017-09-13T14:58:01.650Z,95.70
2017-09-13T15:00:29.129Z,95.70
2017-09-13T15:02:56.607Z,95.30
2017-09-13T15:05:24.113Z,95.00
2017-09-13T15:07:51.590Z,94.70
2017-09-13T15:10:19.096Z,94.70
2017-09-13T15:12:46.576Z,94.90
2017-09-13T15:15:14.236Z,95.60
2017-09-13T15:17:41.719Z,96.40
2017-09-13T15:20:09.200Z,96.90
2017-09-13T15:22:36.696Z,97.00
2017-09-13T15:25:04.178Z,97.30
2017-09-13T15:27:31.687Z,97.40
2017-09-13T15:29:59.168Z,97.50
2017-09-13T15:32:26.685Z,97.70
2017-09-13T15:34:54.170Z,97.70
2017-09-13T15:37:21.677Z,97.90
2017-09-13T15:39:49.156Z,98.20
2017-09-13T15:42:16.648Z,98.10
2017-09-13T15:44:44.128Z,98.20
2017-09-13T15:47:11.632Z,98.00
2017-09-13T15:49:39.107Z,98.10
2017-09-13T15:52:06.599Z,98.40
2017-09-13T15:54:34.081Z,98.80
2017-09-13T15:57:01.575Z,98.90
2017-09-13T15:59:29.061Z,98.40
2017-09-13T16:01:56.552Z,98.60
2017-09-13T16:04:24.800Z,98.50
2017-09-13T16:06:52.309Z,98.40
2017-09-13T16:09:19.795Z,98.60
2017-09-13T16:11:48.066Z,99.60
2017-09-13T16:14:16.316Z,99.60
2017-09-13T16:16:44.594Z,99.00
2017-09-13T16:19:12.071Z,98.90
2017-09-13T16:21:39.544Z,98.90
2017-09-13T16:24:07.048Z,96.70
2017-09-13T16:26:34.524Z,96.80
2017-09-13T16:29:02.015Z,96.50
2017-09-13T16:31:29.492Z,95.90
2017-09-13T16:33:56.989Z,94.80
2017-09-13T16:36:24.480Z,95.00
2017-09-13T16:38:51.979Z,94.30
2017-09-13T16:41:19.472Z,94.60
2017-09-13T16:43:46.977Z,94.10
2017-09-13T16:46:14.452Z,94.60
2017-09-13T16:48:41.952Z,94.40
2017-09-13T16:51:09.432Z,94.90
2017-09-13T16:53:36.957Z,94.80
2017-09-13T16:56:04.427Z,95.20
2017-09-13T16:58:31.925Z,95.60
2017-09-13T17:01:00.183Z,95.80
2017-09-13T17:03:27.684Z,95.40
2017-09-13T17:05:55.554Z,95.40
2017-09-13T17:08:23.815Z,95.50
2017-09-13T17:10:52.064Z,95.60
2017-09-13T17:13:20.328Z,96.30
2017-09-13T17:15:48.604Z,96.30
2017-09-13T17:18:16.881Z,96.50
2017-09-13T17:20:44.367Z,96.50
2017-09-13T17:23:11.844Z,96.80
2017-09-13T17:25:40.113Z,96.90
2017-09-13T17:28:07.591Z,96.90
2017-09-13T17:30:35.085Z,97.30
2017-09-13T17:33:03.334Z,97.60
2017-09-13T17:35:31.600Z,98.00
2017-09-13T17:37:59.839Z,98.30
2017-09-13T17:40:27.331Z,98.20
2017-09-13T17:42:54.824Z,98.30
2017-09-13T17:45:22.328Z,98.50
2017-09-13T17:47:49.882Z,98.90
2017-09-13T17:50:17.376Z,99.10
2017-09-13T17:52:45.627Z,99.10
2017-09-13T17:55:13.117Z,99.10
2017-09-13T17:57:40.596Z,99.20
2017-09-13T18:00:08.096Z,99.60
2017-09-13T18:02:35.576Z,99.10
2017-09-13T18:05:03.077Z,99.00
2017-09-13T18:07:30.553Z,98.90
2017-09-13T18:09:58.068Z,98.90
2017-09-13T18:12:25.548Z,99.50
2017-09-13T18:14:53.047Z,99.40
2017-09-13T18:17:20.525Z,99.30
2017-09-13T18:19:48.043Z,99.40
2017-09-13T18:22:15.524Z,99.70
2017-09-13T18:24:43.001Z,99.90
2017-09-13T18:27:10.499Z,99.90
2017-09-13T18:29:37.984Z,99.90
2017-09-13T18:32:05.480Z,99.90
2017-09-13T18:34:32.959Z,99.90
2017-09-13T18:37:01.227Z,99.90
2017-09-13T18:39:28.704Z,99.90
2017-09-13T18:41:56.196Z,99.90
2017-09-13T18:44:24.440Z,99.90
2017-09-13T18:46:51.930Z,99.90
2017-09-13T18:49:19.409Z,99.90
2017-09-13T18:51:46.900Z,99.90
2017-09-13T18:54:14.371Z,99.90
2017-09-13T18:56:41.874Z,99.90
2017-09-13T18:59:10.113Z,99.90
2017-09-13T19:01:37.608Z,99.90
2017-09-13T19:04:05.099Z,99.90
2017-09-13T19:06:33.364Z,99.90
2017-09-13T19:09:00.841Z,99.90
2017-09-13T19:11:28.341Z,99.90
2017-09-13T19:13:55.816Z,99.90
2017-09-13T19:16:23.311Z,99.90
2017-09-13T19:18:50.788Z,99.90
2017-09-13T19:21:19.068Z,99.90
2017-09-13T19:23:46.544Z,99.90
2017-09-13T19:26:14.028Z,99.90
2017-09-13T19:28:42.289Z,99.90
2017-09-13T19:31:10.536Z,99.90
2017-09-13T19:33:38.037Z,99.90
2017-09-13T19:36:05.516Z,99.90
2017-09-13T19:38:33.023Z,99.90
2017-09-13T19:41:00.508Z,99.90
2017-09-13T19:43:28.771Z,99.90
2017-09-13T19:45:57.020Z,99.90
2017-09-13T19:48:24.520Z,99.90
2017-09-13T19:50:52.004Z,99.90
2017-09-13T19:53:19.512Z,99.90
2017-09-13T19:55:46.989Z,99.90
2017-09-13T19:58:14.495Z,99.90
2017-09-13T20:00:41.968Z,99.90
2017-09-13T20:03:09.460Z,99.90
2017-09-13T20:05:36.946Z,99.90
2017-09-13T20:08:04.448Z,99.90
2017-09-13T20:10:31.925Z,99.90
2017-09-13T20:12:59.416Z,99.90
2017-09-13T20:15:26.891Z,99.90
2017-09-13T20:17:54.393Z,99.90
2017-09-13T20:20:22.640Z,99.90
2017-09-13T20:22:50.921Z,99.90
2017-09-13T20:25:18.404Z,99.90
2017-09-13T20:27:45.880Z,99.90
2017-09-13T20:30:13.380Z,99.90
2017-09-13T20:32:40.861Z,99.90
2017-09-13T20:35:08.360Z,99.90
2017-09-13T20:37:35.844Z,99.90
2017-09-13T20:40:03.348Z,99.90
2017-09-13T20:42:30.824Z,99.90
2017-09-13T20:44:58.324Z,99.90
2017-09-13T20:47:25.816Z,99.90
2017-09-13T20:49:53.328Z,99.90
2017-09-13T20:52:20.804Z,99.90
2017-09-13T20:54:48.314Z,99.90
2017-09-13T20:57:15.801Z,99.90
2017-09-13T20:59:44.065Z,99.90
2017-09-13T21:02:12.309Z,99.90
2017-09-13T21:04:39.808Z,99.90
2017-09-13T21:07:07.281Z,99.90
2017-09-13T21:09:34.782Z,99.90
2017-09-13T21:12:02.265Z,99.90
2017-09-13T21:14:29.769Z,99.90
2017-09-13T21:16:57.244Z,99.90
2017-09-13T21:19:24.740Z,99.90
2017-09-13T21:21:52.216Z,99.90
2017-09-13T21:24:19.727Z,99.90
2017-09-13T21:26:47.204Z,99.90
2017-09-13T21:29:14.672Z,99.90
2017-09-13T21:31:42.170Z,99.90
2017-09-13T21:34:09.654Z,99.90
2017-09-13T21:36:37.145Z,99.90
2017-09-13T21:39:05.384Z,99.90
2017-09-13T21:41:32.902Z,99.90
2017-09-13T21:44:00.380Z,99.90
2017-09-13T21:46:27.884Z,99.90
2017-09-13T21:48:55.368Z,99.90
2017-09-13T21:51:22.868Z,99.90
2017-09-13T21:53:50.343Z,99.90
2017-09-13T21:56:17.840Z,99.90
2017-09-13T21:58:45.355Z,99.90
2017-09-13T22:01:12.851Z,99.90
2017-09-13T22:03:41.100Z,99.90
2017-09-13T22:06:08.595Z,99.90
2017-09-13T22:08:36.067Z,99.90
2017-09-13T22:11:03.560Z,99.90
2017-09-13T22:13:31.036Z,99.90
2017-09-13T22:15:58.532Z,99.90
2017-09-13T22:18:26.008Z,99.90
2017-09-13T22:20:53.507Z,99.90
2017-09-13T22:23:21.751Z,99.90
2017-09-13T22:25:49.250Z,99.90
2017-09-13T22:28:16.727Z,99.90
2017-09-13T22:30:44.228Z,99.90
2017-09-13T22:33:11.713Z,99.90
2017-09-13T22:35:39.188Z,99.90
2017-09-13T22:38:06.684Z,99.90
2017-09-13T22:40:34.168Z,99.90
2017-09-13T22:43:01.673Z,99.90
2017-09-13T22:45:29.153Z,99.90
2017-09-13T22:47:56.647Z,99.90
2017-09-13T22:50:24.129Z,99.90
2017-09-13T22:52:52.401Z,99.90
2017-09-13T22:55:19.888Z,99.90
2017-09-13T22:57:47.379Z,99.90
2017-09-13T23:00:15.624Z,99.90
2017-09-13T23:02:43.115Z,99.90
2017-09-13T23:05:10.593Z,99.90
2017-09-13T23:07:38.092Z,99.90
2017-09-13T23:10:05.568Z,99.90
2017-09-13T23:12:33.063Z,99.90
2017-09-13T23:15:00.540Z,99.90
2017-09-13T23:17:28.031Z,99.90
2017-09-13T23:19:56.272Z,99.90
2017-09-13T23:22:23.767Z,99.90
2017-09-13T23:24:51.248Z,99.90
2017-09-13T23:27:18.757Z,99.90
2017-09-13T23:29:46.240Z,99.90
2017-09-13T23:32:13.711Z,99.90
2017-09-13T23:34:41.204Z,99.90
2017-09-13T23:37:08.680Z,99.90
2017-09-13T23:39:36.177Z,99.90
2017-09-13T23:42:03.656Z,99.90
2017-09-13T23:44:31.147Z,99.90
2017-09-13T23:46:58.615Z,99.90
2017-09-13T23:49:26.112Z,99.90
2017-09-13T23:51:53.592Z,99.90
2017-09-13T23:54:21.084Z,99.90
2017-09-13T23:56:48.557Z,99.90
2017-09-13T23:59:16.063Z,99.90
